Time;durP1;ratioP1;P1;durP2;ratioP2;P2;SDS_P1;SDS_P2;PMS_P1;PMS_P2;Temp;Humidity;BMP_temperature;BMP_pressure;BME280_temperature;BME280_humidity;BME280_pressure;Samples;Min_cycle;Max_cycle;Signal;HPM_P1;HPM_P2
2022/05/01 00:00:56;;;;;;;18.90;11.50;;;10.30;99.90;;;;;;5067521;28;20278;-83
2022/05/01 00:03:32;;;;;;;18.10;11.17;;;10.30;99.90;;;;;;5069127;28;20732;-83
2022/05/01 00:05:59;;;;;;;17.77;11.77;;;10.30;99.90;;;;;;5063765;28;20240;-83
2022/05/01 00:08:27;;;;;;;20.17;11.47;;;10.30;99.90;;;;;;5066220;28;20615;-83
2022/05/01 00:10:54;;;;;;;19.37;11.13;;;10.30;99.90;;;;;;5066801;28;20250;-83
2022/05/01 00:13:39;;;;;;;20.83;11.33;;;10.30;99.90;;;;;;5069026;28;20207;-82
2022/05/01 00:16:06;;;;;;;18.10;11.63;;;10.20;99.90;;;;;;5067814;28;20223;-82
2022/05/01 00:18:33;;;;;;;19.70;11.73;;;10.20;99.90;;;;;;5067819;28;20215;-81
2022/05/01 00:21:00;;;;;;;18.60;11.67;;;10.20;99.90;;;;;;5048115;28;20220;-81
2022/05/01 00:23:27;;;;;;;19.57;11.20;;;10.20;99.90;;;;;;5063185;28;20232;-81
2022/05/01 00:25:54;;;;;;;19.00;12.10;;;10.20;99.90;;;;;;5062049;28;20213;-82
2022/05/01 00:28:21;;;;;;;20.47;11.83;;;10.20;99.90;;;;;;5060154;28;20631;-83
2022/05/01 00:30:48;;;;;;;20.50;11.87;;;10.20;99.90;;;;;;5059416;28;20265;-83
2022/05/01 00:38:47;;;;;;;17.10;11.50;;;10.10;99.90;;;;;;5066502;28;20240;-81
2022/05/01 00:41:14;;;;;;;16.10;11.23;;;10.10;99.90;;;;;;5064584;28;20212;-83
2022/05/01 00:44:03;;;;;;;20.33;11.83;;;10.10;99.90;;;;;;5049855;28;20267;-82
2022/05/01 00:46:36;;;;;;;19.67;11.33;;;10.10;99.90;;;;;;5067639;28;20229;-82
2022/05/01 00:49:04;;;;;;;19.30;12.17;;;10.10;99.90;;;;;;5056914;28;20699;-83
2022/05/01 00:51:38;;;;;;;17.90;10.33;;;10.10;99.90;;;;;;5068051;28;20729;-83
2022/05/01 00:54:07;;;;;;;18.57;11.43;;;10.10;99.90;;;;;;5067538;28;20308;-82
2022/05/01 00:56:40;;;;;;;16.67;10.97;;;10.10;99.90;;;;;;5065514;28;20207;-83
2022/05/01 00:59:07;;;;;;;18.03;11.40;;;10.10;99.90;;;;;;5066641;28;20299;-83
2022/05/01 01:01:35;;;;;;;17.83;11.27;;;10.00;99.90;;;;;;5061050;28;20295;-83
2022/05/01 01:04:02;;;;;;;17.10;11.57;;;10.00;99.90;;;;;;5062659;28;20226;-81
2022/05/01 01:06:29;;;;;;;17.80;11.50;;;10.00;99.90;;;;;;5063985;28;20228;-83
2022/05/01 01:08:56;;;;;;;17.27;10.97;;;10.00;99.90;;;;;;5062193;28;20243;-84
2022/05/01 01:11:23;;;;;;;20.80;12.13;;;10.00;99.90;;;;;;5065169;28;20650;-83
2022/05/01 01:13:50;;;;;;;20.53;11.93;;;9.90;99.90;;;;;;5066185;28;20299;-82
2022/05/01 01:16:17;;;;;;;17.30;11.13;;;9.90;99.90;;;;;;5066905;28;20248;-82
2022/05/01 01:18:45;;;;;;;16.07;11.40;;;9.90;99.90;;;;;;5049141;28;20215;-81
2022/05/01 01:21:12;;;;;;;16.93;10.57;;;9.90;99.90;;;;;;5064358;28;20265;-82
2022/05/01 01:23:40;;;;;;;19.27;11.17;;;9.90;99.90;;;;;;5063148;28;20323;-82
2022/05/01 01:26:08;;;;;;;17.73;11.10;;;9.90;99.90;;;;;;5062422;28;20216;-82
2022/05/01 01:28:42;;;;;;;15.73;10.80;;;9.90;99.90;;;;;;5049233;28;20740;-85
2022/05/01 01:31:55;;;;;;;18.80;11.30;;;9.90;99.90;;;;;;5065773;28;20264;-82
2022/05/01 01:34:05;;;;;;;17.10;10.67;;;9.90;99.90;;;;;;5043348;28;20636;-82
2022/05/01 01:36:35;;;;;;;20.83;11.60;;;9.80;99.90;;;;;;5063501;28;20642;-82
2022/05/01 01:39:03;;;;;;;18.13;11.07;;;9.80;99.90;;;;;;5046062;28;20223;-82
2022/05/01 01:41:31;;;;;;;17.37;11.23;;;9.90;99.90;;;;;;5063895;28;20225;-82
2022/05/01 01:43:59;;;;;;;20.13;12.27;;;9.80;99.90;;;;;;5066850;28;20344;-81
2022/05/01 01:46:26;;;;;;;18.53;11.27;;;9.80;99.90;;;;;;5066838;28;20603;-84
2022/05/01 01:48:53;;;;;;;19.50;12.70;;;9.80;99.90;;;;;;5064278;28;20486;-84
2022/05/01 01:51:20;;;;;;;18.60;11.10;;;9.80;99.90;;;;;;5060489;28;20230;-85
2022/05/01 01:53:47;;;;;;;24.33;12.23;;;9.70;99.90;;;;;;5064148;28;20685;-84
2022/05/01 01:56:14;;;;;;;18.53;11.70;;;9.70;99.90;;;;;;5049486;28;20212;-82
2022/05/01 01:58:41;;;;;;;20.73;12.20;;;9.70;99.90;;;;;;5066212;28;20252;-82
2022/05/01 02:01:10;;;;;;;18.03;11.50;;;9.60;99.90;;;;;;5051813;28;20206;-82
2022/05/01 02:03:38;;;;;;;17.47;11.13;;;9.60;99.90;;;;;;5049431;28;20222;-81
2022/05/01 02:06:06;;;;;;;18.43;11.80;;;9.60;99.90;;;;;;5063459;28;20227;-82
2022/05/01 02:08:34;;;;;;;18.87;12.17;;;9.50;99.90;;;;;;5066206;28;20277;-81
2022/05/01 02:11:03;;;;;;;20.63;11.80;;;9.50;99.90;;;;;;5062967;28;20208;-83
2022/05/01 02:13:29;;;;;;;17.10;10.77;;;9.50;99.90;;;;;;5064254;28;20265;-82
2022/05/01 02:15:57;;;;;;;17.20;11.17;;;9.50;99.90;;;;;;5066959;28;20645;-82
2022/05/01 02:18:25;;;;;;;16.63;10.83;;;9.50;99.90;;;;;;5066882;28;20218;-82
2022/05/01 02:23:37;;;;;;;17.23;10.67;;;9.50;99.90;;;;;;5061239;28;20251;-82
2022/05/01 02:26:03;;;;;;;19.20;11.30;;;9.50;99.90;;;;;;5063596;28;20232;-82
2022/05/01 02:28:30;;;;;;;21.50;11.87;;;9.40;99.90;;;;;;5060739;28;20648;-82
2022/05/01 02:30:57;;;;;;;21.30;12.03;;;9.40;99.90;;;;;;5066501;28;20231;-82
2022/05/01 02:33:25;;;;;;;21.07;12.57;;;9.40;99.90;;;;;;5058415;28;20208;-82
2022/05/01 02:35:52;;;;;;;18.57;11.63;;;9.40;99.90;;;;;;5051523;28;20248;-84
2022/05/01 02:38:20;;;;;;;19.63;11.93;;;9.40;99.90;;;;;;5071514;28;20207;-83
2022/05/01 02:40:46;;;;;;;19.57;12.20;;;9.40;99.90;;;;;;5075014;28;20252;-82
2022/05/01 02:43:13;;;;;;;20.17;12.43;;;9.30;99.90;;;;;;5074740;28;20256;-83
2022/05/01 02:45:42;;;;;;;18.37;11.53;;;9.40;99.90;;;;;;5075352;28;20231;-83
2022/05/01 02:48:09;;;;;;;17.83;10.93;;;9.30;99.90;;;;;;5072606;28;20328;-84
2022/05/01 02:50:36;;;;;;;19.43;11.50;;;9.40;99.90;;;;;;5056970;28;20210;-82
2022/05/01 02:53:04;;;;;;;17.90;12.23;;;9.30;99.90;;;;;;5052893;28;20312;-84
2022/05/01 02:55:32;;;;;;;17.63;11.40;;;9.30;99.90;;;;;;5063288;28;20212;-83
2022/05/01 02:57:59;;;;;;;17.77;11.27;;;9.30;99.90;;;;;;5065229;28;20246;-82
2022/05/01 03:00:26;;;;;;;19.60;11.50;;;9.20;99.90;;;;;;5067048;28;20209;-81
2022/05/01 03:02:56;;;;;;;17.80;11.50;;;9.20;99.90;;;;;;5068838;28;20339;-83
2022/05/01 03:05:24;;;;;;;17.57;12.30;;;9.20;99.90;;;;;;5048089;28;20573;-82
2022/05/01 03:07:55;;;;;;;18.80;11.93;;;9.10;99.90;;;;;;5069406;28;20671;-83
2022/05/01 03:10:23;;;;;;;20.73;11.60;;;9.10;99.90;;;;;;5065607;28;20241;-82
2022/05/01 03:12:50;;;;;;;18.67;11.87;;;9.10;99.90;;;;;;5067849;28;20229;-82
2022/05/01 03:15:18;;;;;;;21.50;12.67;;;9.00;99.90;;;;;;5066433;28;20202;-82
2022/05/01 03:23:16;;;;;;;18.63;12.27;;;8.90;99.90;;;;;;5069199;28;20280;-82
2022/05/01 03:25:43;;;;;;;20.30;12.90;;;8.80;99.90;;;;;;5069351;28;20226;-83
2022/05/01 03:28:09;;;;;;;20.53;12.87;;;8.80;99.90;;;;;;5064969;28;20570;-82
2022/05/01 03:30:36;;;;;;;21.37;12.73;;;8.70;99.90;;;;;;5067503;28;20228;-82
2022/05/01 03:33:05;;;;;;;22.27;12.60;;;8.70;99.90;;;;;;5051897;28;20297;-82
2022/05/01 03:35:36;;;;;;;20.43;12.40;;;8.70;99.90;;;;;;5069416;28;20299;-81
2022/05/01 03:38:04;;;;;;;18.43;12.30;;;8.70;99.90;;;;;;5059759;28;20244;-82
2022/05/01 03:40:31;;;;;;;17.80;11.93;;;8.70;99.90;;;;;;5048120;28;20214;-82
2022/05/01 03:42:57;;;;;;;24.47;12.33;;;8.70;99.90;;;;;;5069158;28;20234;-82
2022/05/01 03:45:24;;;;;;;21.20;12.37;;;8.60;99.90;;;;;;5061150;28;20241;-82
2022/05/01 03:47:51;;;;;;;20.93;13.47;;;8.60;99.90;;;;;;5071230;28;20332;-82
2022/05/01 03:50:18;;;;;;;24.30;13.20;;;8.60;99.90;;;;;;5067432;28;20214;-83
2022/05/01 03:52:45;;;;;;;21.47;13.27;;;8.60;99.90;;;;;;5068760;28;20263;-82
2022/05/01 03:55:13;;;;;;;20.40;13.10;;;8.60;99.90;;;;;;5060863;28;20221;-83
2022/05/01 03:57:40;;;;;;;21.23;13.23;;;8.50;99.90;;;;;;5061937;28;20603;-82
2022/05/01 04:00:10;;;;;;;20.83;11.60;;;8.50;99.90;;;;;;5065249;28;20213;-81
2022/05/01 04:02:42;;;;;;;19.47;12.00;;;8.40;99.90;;;;;;5069322;28;20206;-82
2022/05/01 04:05:10;;;;;;;18.73;11.10;;;8.40;99.90;;;;;;5066893;28;20389;-82
2022/05/01 04:07:40;;;;;;;21.10;11.97;;;8.40;99.90;;;;;;5070134;28;20717;-82
2022/05/01 04:10:08;;;;;;;23.00;12.93;;;8.40;99.90;;;;;;5068261;28;20669;-82
2022/05/01 04:12:39;;;;;;;20.73;11.83;;;8.40;99.90;;;;;;5065845;28;20282;-82
2022/05/01 04:15:09;;;;;;;19.80;12.20;;;8.40;99.90;;;;;;5071335;28;20692;-81
2022/05/01 04:17:38;;;;;;;18.67;12.17;;;8.40;99.90;;;;;;5062231;28;20671;-81
2022/05/01 04:20:11;;;;;;;22.67;12.13;;;8.30;99.90;;;;;;5067394;28;20638;-83
2022/05/01 04:22:40;;;;;;;23.63;12.53;;;8.30;99.90;;;;;;5081688;28;20744;-81
2022/05/01 04:25:29;;;;;;;18.70;11.57;;;8.30;99.90;;;;;;5064016;28;20236;-84
2022/05/01 04:27:59;;;;;;;24.70;12.67;;;8.30;99.90;;;;;;5072588;28;20519;-83
2022/05/01 04:30:26;;;;;;;22.60;13.17;;;8.30;99.90;;;;;;5089251;28;20208;-82
2022/05/01 04:32:57;;;;;;;23.27;12.57;;;8.30;99.90;;;;;;5086249;28;20325;-82
2022/05/01 04:35:31;;;;;;;23.60;12.50;;;8.40;99.90;;;;;;5066294;28;20234;-82
2022/05/01 04:37:59;;;;;;;21.97;12.83;;;8.40;99.90;;;;;;5061066;28;20361;-83
2022/05/01 04:40:34;;;;;;;22.33;12.70;;;8.40;99.90;;;;;;5040504;28;20626;-80
2022/05/01 04:43:03;;;;;;;21.40;12.13;;;8.50;99.90;;;;;;5044522;28;20229;-82
2022/05/01 04:45:31;;;;;;;20.53;12.97;;;8.50;99.90;;;;;;5066503;28;20279;-83
2022/05/01 04:47:59;;;;;;;22.07;12.93;;;8.40;99.90;;;;;;5068287;28;20203;-83
2022/05/01 04:50:26;;;;;;;19.53;12.87;;;8.50;99.90;;;;;;5068494;28;20234;-82
2022/05/01 04:52:53;;;;;;;19.43;12.23;;;8.40;99.90;;;;;;5061318;28;20242;-82
2022/05/01 04:55:20;;;;;;;23.90;12.17;;;8.40;99.90;;;;;;5048812;28;20238;-83
2022/05/01 04:57:49;;;;;;;21.27;11.83;;;8.40;99.90;;;;;;5063689;28;20207;-83
2022/05/01 05:00:20;;;;;;;24.03;12.60;;;8.30;99.90;;;;;;5057735;28;20266;-82
2022/05/01 05:02:50;;;;;;;20.53;12.03;;;8.30;99.90;;;;;;5068149;28;20276;-82
2022/05/01 05:05:18;;;;;;;20.07;12.20;;;8.30;99.90;;;;;;5068912;28;20235;-84
2022/05/01 05:07:46;;;;;;;19.40;12.27;;;8.30;99.90;;;;;;5066379;28;20242;-82
2022/05/01 05:10:14;;;;;;;22.80;12.90;;;8.30;99.90;;;;;;5066794;28;20740;-83
2022/05/01 05:12:43;;;;;;;19.30;11.70;;;8.20;99.90;;;;;;5068203;28;20212;-82
2022/05/01 05:15:11;;;;;;;19.90;12.53;;;8.20;99.90;;;;;;5066690;28;20249;-83
2022/05/01 05:17:38;;;;;;;22.10;12.80;;;8.30;99.90;;;;;;5065085;28;20297;-83
2022/05/01 05:20:06;;;;;;;28.07;13.53;;;8.30;99.90;;;;;;5066436;28;20881;-82
2022/05/01 05:22:33;;;;;;;20.57;13.07;;;8.30;99.90;;;;;;5052463;28;20214;-83
2022/05/01 05:25:01;;;;;;;23.50;12.57;;;8.20;99.90;;;;;;5063332;28;20259;-83
2022/05/01 05:27:27;;;;;;;24.23;12.60;;;8.20;99.90;;;;;;5062760;28;20784;-83
2022/05/01 05:29:55;;;;;;;24.83;14.43;;;8.20;99.90;;;;;;5064682;28;20217;-83
2022/05/01 05:32:24;;;;;;;22.57;13.77;;;8.20;99.90;;;;;;5061154;28;20242;-82
2022/05/01 05:34:52;;;;;;;23.03;13.13;;;8.30;99.90;;;;;;5044862;28;20210;-82
2022/05/01 05:37:19;;;;;;;21.23;13.20;;;8.30;99.90;;;;;;5057124;28;20577;-82
2022/05/01 05:39:46;;;;;;;20.03;10.93;;;8.40;99.90;;;;;;5065442;28;20241;-82
2022/05/01 05:42:14;;;;;;;21.80;12.80;;;8.50;99.90;;;;;;5062963;28;20295;-82
2022/05/01 05:44:42;;;;;;;20.63;12.43;;;8.50;99.90;;;;;;5064145;28;20685;-83
2022/05/01 05:47:10;;;;;;;19.67;12.57;;;8.60;99.90;;;;;;5068474;28;20622;-82
2022/05/01 05:49:36;;;;;;;19.80;12.77;;;8.70;99.90;;;;;;5065240;28;20615;-84
2022/05/01 05:52:03;;;;;;;18.63;11.83;;;8.80;99.90;;;;;;5062315;28;20210;-82
2022/05/01 05:54:30;;;;;;;20.87;12.57;;;8.90;99.90;;;;;;5061647;28;20288;-84
2022/05/01 05:56:57;;;;;;;24.30;12.97;;;9.00;99.90;;;;;;5063004;28;20243;-83
2022/05/01 05:59:24;;;;;;;21.47;12.37;;;9.10;99.90;;;;;;5062424;28;20236;-83
2022/05/01 06:01:50;;;;;;;20.80;11.97;;;9.20;99.90;;;;;;5066832;28;20252;-82
2022/05/01 06:04:17;;;;;;;21.20;13.20;;;9.30;99.90;;;;;;5048200;28;20259;-84
2022/05/01 06:06:44;;;;;;;19.40;12.30;;;9.40;99.90;;;;;;5061497;28;20355;-84
2022/05/01 06:09:11;;;;;;;20.90;11.67;;;9.60;99.90;;;;;;5064426;28;20279;-83
2022/05/01 06:11:38;;;;;;;20.30;12.27;;;9.60;99.90;;;;;;5065375;28;20314;-83
2022/05/01 06:14:05;;;;;;;20.50;12.33;;;9.70;99.90;;;;;;5066396;28;20592;-82
2022/05/01 06:16:33;;;;;;;22.47;13.00;;;9.90;99.90;;;;;;5061239;28;20234;-83
2022/05/01 06:19:00;;;;;;;21.57;12.20;;;10.00;99.90;;;;;;5047782;28;20302;-82
2022/05/01 06:21:27;;;;;;;20.20;12.80;;;10.10;99.90;;;;;;5065645;28;20235;-85
2022/05/01 06:23:54;;;;;;;18.97;12.47;;;10.30;99.90;;;;;;5060634;28;20253;-84
2022/05/01 06:26:21;;;;;;;19.73;12.77;;;10.40;99.90;;;;;;5061899;28;20230;-82
2022/05/01 06:28:52;;;;;;;19.07;12.63;;;10.60;99.90;;;;;;5050448;28;20303;-83
2022/05/01 06:31:20;;;;;;;20.07;12.40;;;10.80;99.90;;;;;;5050191;28;20792;-83
2022/05/01 06:33:47;;;;;;;19.77;12.00;;;11.00;99.90;;;;;;5048469;28;20203;-83
2022/05/01 06:36:17;;;;;;;18.47;12.37;;;11.20;99.90;;;;;;5066945;28;20282;-82
2022/05/01 06:38:45;;;;;;;20.87;12.23;;;11.20;99.90;;;;;;5049458;28;20275;-83
2022/05/01 06:41:14;;;;;;;19.97;12.17;;;11.40;99.90;;;;;;5070442;28;20230;-80
2022/05/01 06:43:40;;;;;;;17.80;12.07;;;11.50;99.90;;;;;;5052361;28;20236;-84
2022/05/01 06:46:07;;;;;;;18.23;12.70;;;11.60;99.90;;;;;;5067960;28;20271;-83
2022/05/01 06:48:34;;;;;;;19.33;12.63;;;11.60;99.90;;;;;;5064249;28;20668;-84
2022/05/01 06:51:01;;;;;;;18.57;12.03;;;11.70;99.90;;;;;;5069890;28;20251;-82
2022/05/01 06:53:28;;;;;;;18.67;12.33;;;11.80;99.90;;;;;;5069675;28;20598;-83
2022/05/01 06:55:58;;;;;;;17.47;11.77;;;11.90;99.90;;;;;;5067197;28;20236;-84
2022/05/01 06:58:25;;;;;;;21.13;12.40;;;12.00;99.90;;;;;;5076520;28;20211;-84
2022/05/01 07:00:52;;;;;;;18.03;11.37;;;12.10;99.90;;;;;;5069148;28;20226;-84
2022/05/01 07:03:20;;;;;;;17.67;12.50;;;12.20;99.90;;;;;;5052076;28;20653;-83
2022/05/01 07:05:48;;;;;;;21.27;12.10;;;12.40;99.90;;;;;;5050839;28;20231;-83
2022/05/01 07:08:15;;;;;;;18.07;12.03;;;12.50;99.90;;;;;;5058031;28;20258;-84
2022/05/01 07:10:42;;;;;;;17.57;11.87;;;;;;;;;;5064956;28;20207;-81
2022/05/01 07:13:10;;;;;;;20.80;13.33;;;12.90;99.90;;;;;;5035414;28;20535;-84
2022/05/01 07:15:40;;;;;;;17.47;12.10;;;13.10;99.90;;;;;;5052734;28;20215;-84
2022/05/01 07:18:07;;;;;;;15.50;11.07;;;13.80;99.90;;;;;;5066406;28;20242;-84
2022/05/01 07:20:35;;;;;;;15.47;11.20;;;14.90;99.90;;;;;;5067391;28;20232;-86
2022/05/01 07:23:03;;;;;;;18.73;12.23;;;15.80;99.90;;;;;;5065964;28;20528;-85
2022/05/01 07:25:31;;;;;;;16.17;11.10;;;16.50;99.90;;;;;;5062291;28;20306;-86
2022/05/01 07:27:57;;;;;;;15.32;10.77;;;16.80;99.90;;;;;;5070127;28;20220;-84
2022/05/01 07:30:24;;;;;;;16.15;10.82;;;17.20;99.90;;;;;;5067642;28;20220;-86
2022/05/01 07:32:51;;;;;;;15.65;9.85;;;17.30;99.90;;;;;;5067503;28;20643;-85
2022/05/01 07:35:19;;;;;;;18.40;11.80;;;17.30;99.90;;;;;;5069843;28;20261;-84
2022/05/01 07:37:46;;;;;;;17.40;11.10;;;17.20;99.90;;;;;;5067593;28;20208;-85
2022/05/01 07:40:13;;;;;;;15.25;11.02;;;17.30;99.90;;;;;;5061199;28;20222;-84
2022/05/01 07:42:39;;;;;;;16.23;12.32;;;17.10;99.90;;;;;;5059632;28;20264;-84
2022/05/01 07:45:07;;;;;;;16.27;12.07;;;17.10;99.90;;;;;;5050461;28;20213;-86
2022/05/01 07:47:33;;;;;;;15.20;11.60;;;17.00;99.90;;;;;;5064265;28;20583;-86
2022/05/01 07:50:00;;;;;;;16.08;11.75;;;17.30;99.90;;;;;;5070355;28;20297;-87
2022/05/01 07:52:27;;;;;;;16.20;10.50;;;17.60;99.90;;;;;;5069692;28;20570;-85
2022/05/01 07:54:54;;;;;;;19.67;11.82;;;17.70;99.90;;;;;;5066953;28;20237;-83
2022/05/01 07:57:26;;;;;;;14.90;10.50;;;17.80;99.90;;;;;;5065043;28;20265;-85
2022/05/01 07:59:54;;;;;;;15.93;10.00;;;17.90;99.90;;;;;;5065693;28;20568;-84
2022/05/01 08:02:21;;;;;;;14.60;10.30;;;18.10;99.90;;;;;;5070003;28;20212;-84
2022/05/01 08:04:48;;;;;;;13.63;10.35;;;18.30;99.90;;;;;;5066082;28;20243;-85
2022/05/01 08:07:16;;;;;;;12.90;9.10;;;18.20;99.90;;;;;;5071851;28;20327;-86
2022/05/01 08:09:43;;;;;;;13.93;9.70;;;18.10;99.90;;;;;;5057785;28;20213;-85
2022/05/01 08:12:10;;;;;;;14.05;9.48;;;18.20;99.90;;;;;;5072549;28;20208;-84
2022/05/01 08:14:45;;;;;;;10.80;9.02;;;18.20;99.90;;;;;;5068342;28;20401;-86
2022/05/01 08:17:12;;;;;;;13.25;9.35;;;18.10;99.90;;;;;;5052978;28;20208;-85
2022/05/01 08:22:25;;;;;;;16.27;10.02;;;17.60;99.90;;;;;;5067125;28;20227;-86
2022/05/01 08:24:54;;;;;;;14.55;9.23;;;17.50;99.90;;;;;;5068447;28;20264;-86
2022/05/01 08:27:21;;;;;;;15.43;9.13;;;17.50;99.90;;;;;;5065466;28;20267;-85
2022/05/01 08:29:48;;;;;;;15.75;9.68;;;17.50;99.90;;;;;;5067646;28;20216;-87
2022/05/01 08:32:15;;;;;;;13.23;9.50;;;17.90;99.90;;;;;;5060284;28;20217;-85
2022/05/01 08:34:42;;;;;;;15.57;9.52;;;18.20;99.90;;;;;;5062455;28;20254;-87
2022/05/01 08:37:09;;;;;;;11.68;8.75;;;18.40;99.90;;;;;;5072160;28;20208;-86
2022/05/01 08:39:36;;;;;;;12.80;8.57;;;18.60;99.90;;;;;;5068651;28;20524;-87
2022/05/01 08:42:03;;;;;;;14.38;9.73;;;18.70;99.90;;;;;;5068284;28;20716;-85
2022/05/01 08:44:34;;;;;;;13.95;9.55;;;18.70;99.90;;;;;;5047628;28;20264;-85
2022/05/01 08:47:35;;;;;;;15.00;9.32;;;18.40;99.90;;;;;;5045214;28;20233;-82
2022/05/01 08:50:09;;;;;;;11.65;9.13;;;18.30;99.90;;;;;;5036605;28;20220;-86
2022/05/01 08:52:38;;;;;;;12.20;8.52;;;18.00;99.90;;;;;;5041730;28;20641;-84
2022/05/01 08:55:05;;;;;;;14.93;9.15;;;18.00;99.90;;;;;;5048755;28;20224;-85
2022/05/01 08:57:34;;;;;;;11.60;8.95;;;17.80;99.90;;;;;;5045424;28;20206;-87
2022/05/01 09:00:05;;;;;;;14.43;8.90;;;17.50;99.90;;;;;;5045483;28;20255;-84
2022/05/01 09:02:32;;;;;;;12.13;9.50;;;17.30;99.90;;;;;;5048959;28;20596;-85
2022/05/01 09:05:00;;;;;;;13.18;9.82;;;17.10;99.90;;;;;;5041566;28;20221;-84
2022/05/01 09:07:27;;;;;;;13.15;9.30;;;16.80;99.90;;;;;;5045250;28;20232;-83
2022/05/01 09:09:54;;;;;;;15.20;9.05;;;16.80;99.90;;;;;;5050509;28;20205;-84
2022/05/01 09:15:06;;;;;;;13.68;8.85;;;16.60;99.90;;;;;;5052230;28;20296;-84
2022/05/01 09:17:33;;;;;;;11.18;8.93;;;16.50;99.90;;;;;;5053225;28;20202;-84
2022/05/01 09:20:09;;;;;;;11.30;8.23;;;16.50;99.90;;;;;;5046004;28;20216;-83
2022/05/01 09:22:50;;;;;;;10.82;7.78;;;16.50;99.90;;;;;;5047060;28;20227;-83
2022/05/01 09:25:19;;;;;;;14.35;9.05;;;16.30;99.90;;;;;;5041033;28;20214;-83
2022/05/01 09:27:46;;;;;;;10.38;7.75;;;16.00;99.90;;;;;;5046948;28;20660;-84
2022/05/01 09:30:20;;;;;;;11.05;7.75;;;16.00;99.90;;;;;;5044229;28;20205;-83
2022/05/01 09:32:48;;;;;;;11.20;8.00;;;16.10;99.90;;;;;;5044382;28;20307;-83
2022/05/01 09:35:31;;;;;;;11.18;7.80;;;16.20;99.90;;;;;;5045549;28;20213;-83
2022/05/01 09:38:08;;;;;;;10.05;7.78;;;16.30;99.90;;;;;;5047967;28;20245;-81
2022/05/01 09:40:35;;;;;;;10.77;8.00;;;16.40;99.90;;;;;;5048476;28;20391;-84
2022/05/01 09:43:02;;;;;;;9.82;7.32;;;16.40;99.90;;;;;;5045333;28;20751;-83
2022/05/01 09:45:32;;;;;;;12.60;7.97;;;16.40;99.90;;;;;;5044961;28;20305;-81
2022/05/01 09:48:19;;;;;;;10.45;7.30;;;16.20;99.90;;;;;;5043459;28;20236;-82
2022/05/01 09:50:47;;;;;;;11.48;7.40;;;15.90;99.90;;;;;;5038664;28;20608;-82
2022/05/01 09:53:14;;;;;;;11.63;7.47;;;16.00;99.90;;;;;;5042808;28;20213;-82
2022/05/01 09:55:41;;;;;;;11.02;7.10;;;16.00;99.90;;;;;;5044643;28;20216;-82
2022/05/01 09:58:09;;;;;;;10.57;7.80;;;16.10;99.90;;;;;;5046569;28;20580;-82
2022/05/01 10:00:45;;;;;;;10.43;6.80;;;16.30;99.90;;;;;;5044845;28;20263;-82
2022/05/01 10:03:26;;;;;;;9.10;6.75;;;16.30;99.90;;;;;;5047437;28;20205;-82
2022/05/01 10:05:54;;;;;;;13.37;7.93;;;16.40;99.90;;;;;;5042768;28;20296;-82
2022/05/01 10:08:21;;;;;;;11.82;7.22;;;16.40;99.90;;;;;;5045708;28;20220;-81
2022/05/01 10:10:59;;;;;;;10.48;6.85;;;16.50;99.90;;;;;;5045233;28;20227;-82
2022/05/01 10:13:27;;;;;;;7.95;6.20;;;16.60;99.90;;;;;;5050550;28;20304;-81
2022/05/01 10:16:06;;;;;;;9.73;6.18;;;16.70;99.90;;;;;;5036661;28;20344;-83
2022/05/01 10:18:34;;;;;;;10.10;7.00;;;17.00;99.90;;;;;;5047735;28;20220;-82
2022/05/01 10:21:01;;;;;;;8.80;6.60;;;17.20;99.90;;;;;;5047685;28;20208;-82
2022/05/01 10:23:29;;;;;;;12.30;6.30;;;17.50;99.70;;;;;;5048579;28;20241;-81
2022/05/01 10:26:02;;;;;;;8.40;6.13;;;17.50;99.10;;;;;;5042382;28;20216;-82
2022/05/01 10:29:31;;;;;;;8.32;6.68;;;17.70;98.50;;;;;;5047128;28;20223;-82
2022/05/01 10:32:23;;;;;;;8.88;6.55;;;17.90;98.10;;;;;;5033867;28;20582;-81
2022/05/01 10:35:18;;;;;;;9.10;6.53;;;17.80;98.70;;;;;;5057941;28;20274;-82
2022/05/01 10:38:05;;;;;;;9.65;7.53;;;18.00;99.40;;;;;;5043392;28;20252;-81
2022/05/01 10:40:50;;;;;;;10.38;6.28;;;18.40;98.40;;;;;;5047192;28;20221;-83
2022/05/01 10:43:36;;;;;;;9.07;7.03;;;18.70;97.30;;;;;;5057422;28;20248;-82
2022/05/01 10:46:18;;;;;;;9.02;6.65;;;18.70;96.90;;;;;;5068268;28;20208;-81
2022/05/01 10:48:46;;;;;;;8.93;6.65;;;18.80;97.00;;;;;;5051967;28;20619;-84
2022/05/01 10:51:30;;;;;;;9.23;6.32;;;18.80;97.20;;;;;;5069987;28;20219;-83
2022/05/01 10:54:09;;;;;;;10.73;6.80;;;18.90;96.10;;;;;;5064482;28;20265;-83
2022/05/01 10:56:47;;;;;;;9.43;6.63;;;19.00;96.30;;;;;;5064597;28;20212;-83
2022/05/01 10:59:34;;;;;;;9.32;6.97;;;18.90;95.50;;;;;;5066725;28;20208;-81
2022/05/01 11:02:22;;;;;;;10.02;7.03;;;18.70;95.30;;;;;;5068630;28;20315;-82
2022/05/01 11:04:52;;;;;;;9.45;6.20;;;18.70;94.70;;;;;;5064791;28;20641;-82
2022/05/01 11:07:21;;;;;;;7.68;5.57;;;18.70;94.30;;;;;;5066332;28;20258;-82
2022/05/01 11:09:49;;;;;;;8.68;6.03;;;18.90;93.50;;;;;;5063924;28;20216;-83
2022/05/01 11:12:19;;;;;;;9.85;6.47;;;19.10;93.20;;;;;;5064750;28;20219;-82
2022/05/01 11:15:00;;;;;;;13.60;6.78;;;19.30;93.00;;;;;;5069952;28;20208;-82
2022/05/01 11:17:36;;;;;;;11.27;6.40;;;19.40;91.90;;;;;;5055907;28;20240;-80
2022/05/01 11:20:22;;;;;;;8.57;5.75;;;19.50;92.20;;;;;;5061588;28;20299;-81
2022/05/01 11:22:50;;;;;;;8.77;6.20;;;19.50;91.80;;;;;;5049387;28;20232;-82
2022/05/01 11:25:38;;;;;;;7.68;6.05;;;19.50;91.60;;;;;;5068036;28;20239;-85
2022/05/01 11:28:05;;;;;;;7.78;5.22;;;19.40;91.50;;;;;;5045987;28;20269;-82
2022/05/01 11:30:37;;;;;;;7.15;5.57;;;19.40;90.60;;;;;;5066059;28;20266;-84
2022/05/01 11:33:09;;;;;;;10.10;5.60;;;19.30;89.80;;;;;;5066362;28;20205;-83
2022/05/01 11:35:58;;;;;;;10.23;5.40;;;19.10;86.90;;;;;;5066043;28;20216;-84
2022/05/01 11:38:37;;;;;;;8.50;5.32;;;19.00;87.10;;;;;;5063264;28;20686;-83
2022/05/01 11:41:06;;;;;;;8.93;5.72;;;18.90;86.50;;;;;;5062006;28;20211;-83
2022/05/01 11:43:35;;;;;;;9.82;5.25;;;18.90;87.50;;;;;;5060874;28;20237;-84
2022/05/01 11:46:04;;;;;;;8.48;5.78;;;18.90;89.10;;;;;;5066643;28;20680;-84
2022/05/01 11:48:34;;;;;;;8.07;5.60;;;18.80;89.90;;;;;;5064192;28;20313;-84
2022/05/01 11:51:01;;;;;;;6.80;5.63;;;18.90;89.50;;;;;;5063487;28;20288;-85
2022/05/01 11:53:31;;;;;;;8.23;6.35;;;19.10;87.90;;;;;;5065605;28;20303;-84
2022/05/01 12:04:35;;;;;;;7.85;5.20;;;19.20;83.90;;;;;;5058735;28;20201;-86
2022/05/01 12:07:16;;;;;;;6.93;5.00;;;18.90;84.00;;;;;;5063901;28;20268;-83
2022/05/01 12:09:44;;;;;;;8.15;5.30;;;18.80;84.80;;;;;;5049559;28;20685;-82
2022/05/01 12:12:14;;;;;;;7.93;5.13;;;18.70;83.50;;;;;;5068219;28;20240;-83
2022/05/01 12:14:42;;;;;;;6.32;5.35;;;18.70;82.80;;;;;;5065572;28;20263;-84
2022/05/01 12:17:14;;;;;;;7.07;5.28;;;18.60;82.00;;;;;;5065010;28;20212;-85
2022/05/01 12:19:49;;;;;;;7.80;5.28;;;18.70;81.50;;;;;;5060001;28;20739;-84
2022/05/01 12:22:20;;;;;;;9.32;5.30;;;18.70;80.90;;;;;;5059643;28;20235;-85
2022/05/01 12:24:49;;;;;;;8.00;5.40;;;18.70;81.40;;;;;;5068331;28;20251;-85
2022/05/01 12:27:20;;;;;;;6.28;5.40;;;18.90;81.60;;;;;;5065735;28;20267;-83
2022/05/01 12:29:49;;;;;;;6.30;4.97;;;19.10;81.00;;;;;;5066333;28;20205;-84
2022/05/01 12:32:17;;;;;;;6.93;4.90;;;19.10;80.00;;;;;;5052986;28;20235;-84
2022/05/01 12:34:44;;;;;;;9.35;5.70;;;19.20;79.90;;;;;;5070402;28;20224;-82
2022/05/01 12:37:19;;;;;;;9.70;5.68;;;19.20;79.50;;;;;;5059071;28;20307;-83
2022/05/01 12:40:02;;;;;;;7.88;5.07;;;19.40;79.20;;;;;;5062492;28;20208;-85
2022/05/01 12:45:18;;;;;;;8.48;4.97;;;19.80;77.60;;;;;;5063980;28;20253;-85
2022/05/01 12:47:50;;;;;;;7.38;5.18;;;19.90;77.20;;;;;;5067088;28;20260;-84
2022/05/01 12:50:20;;;;;;;6.30;5.18;;;20.00;77.50;;;;;;5066332;28;21039;-82
2022/05/01 12:52:48;;;;;;;7.88;5.20;;;20.20;77.20;;;;;;5064552;28;20257;-84
2022/05/01 12:55:17;;;;;;;7.70;5.32;;;20.50;76.80;;;;;;5047054;28;20207;-85
2022/05/01 12:57:51;;;;;;;8.00;4.97;;;20.70;75.60;;;;;;5061486;28;20258;-83
2022/05/01 13:00:41;;;;;;;6.65;5.18;;;20.70;77.00;;;;;;5059303;28;20213;-85
2022/05/01 13:03:37;;;;;;;7.30;4.88;;;20.70;76.80;;;;;;5066403;28;20205;-86
2022/05/01 13:06:07;;;;;;;7.20;4.88;;;20.70;76.80;;;;;;5066139;28;20212;-83
2022/05/01 13:08:42;;;;;;;7.30;4.60;;;20.70;77.60;;;;;;5066282;28;20233;-85
2022/05/01 13:11:23;;;;;;;8.20;4.65;;;20.80;76.50;;;;;;5071341;28;20538;-86
2022/05/01 13:14:04;;;;;;;6.43;5.20;;;20.90;76.10;;;;;;5072714;28;20219;-85
2022/05/01 13:16:30;;;;;;;10.02;5.60;;;20.90;74.40;;;;;;5065983;28;20292;-85
2022/05/01 13:19:01;;;;;;;7.68;4.95;;;20.70;74.50;;;;;;5065730;28;20211;-88
2022/05/01 13:21:30;;;;;;;6.32;4.85;;;20.50;74.90;;;;;;5068093;28;20196;-86